Nortonville, Kansas
Current Conditions -  °F | °C
As of 5:52 AM on Sunday 21 Dec 2014 (Local Time) from KLWC Reporting Station
Overcast Overcast  
Wind Chill: 33°   Ceiling: 1600
Heat Index: 38°   Visibility: 7mi
Dew Point: 35°   Wind: 7mph
Humidity: 89%   Direction: 170°S
Pressure: 30.05"   Gusts: NA
Location:  39.42°N, 95.33°W
Report Text: KLWC 211152Z AUTO 17006KT 7SM OVC016 03/02 A3005 RMK AO2 SLP181 T00330017 10033 20006 56017
Loading
Personal Weather Stations






























Interactive Weather Map New forecast layout! Learn more

10-Day Weather Forecast

Advertisements
Track Severe Weather on mobile